createdAt,value
2017-08-24T00:01:31.198Z,7.30
2017-08-24T00:03:59.010Z,7.50
2017-08-24T00:06:26.546Z,6.77
2017-08-24T00:08:54.095Z,6.63
2017-08-24T00:11:21.658Z,7.07
2017-08-24T00:13:49.185Z,6.53
2017-08-24T00:16:16.995Z,7.23
2017-08-24T00:18:44.540Z,6.50
2017-08-24T00:21:12.119Z,6.60
2017-08-24T00:23:39.691Z,7.80
2017-08-24T00:26:07.216Z,7.20
2017-08-24T00:28:35.122Z,7.27
2017-08-24T00:31:02.647Z,7.10
2017-08-24T00:33:30.170Z,6.70
2017-08-24T00:35:57.761Z,6.80
2017-08-24T00:38:25.286Z,7.37
2017-08-24T00:40:53.138Z,6.73
2017-08-24T00:43:20.761Z,6.73
2017-08-24T00:45:48.295Z,7.40
2017-08-24T00:48:15.831Z,6.77
2017-08-24T00:50:43.378Z,7.03
2017-08-24T00:53:11.245Z,7.57
2017-08-24T00:55:38.768Z,6.90
2017-08-24T00:58:06.277Z,7.27
2017-08-24T01:00:33.831Z,6.40
2017-08-24T01:03:01.345Z,6.90
2017-08-24T01:05:29.861Z,7.43
2017-08-24T01:07:57.388Z,7.40
2017-08-24T01:10:24.917Z,6.93
2017-08-24T01:12:52.494Z,7.57
2017-08-24T01:15:20.032Z,7.10
2017-08-24T01:17:47.980Z,6.93
2017-08-24T01:20:15.495Z,7.63
2017-08-24T01:22:43.030Z,6.70
2017-08-24T01:25:11.359Z,7.03
2017-08-24T01:27:38.874Z,7.40
2017-08-24T01:30:06.822Z,7.93
2017-08-24T01:32:34.332Z,7.37
2017-08-24T01:35:01.896Z,7.87
2017-08-24T01:37:29.454Z,7.40
2017-08-24T01:39:56.992Z,7.90
2017-08-24T01:42:25.243Z,7.43
2017-08-24T01:44:52.780Z,7.83
2017-08-24T01:47:20.292Z,7.20
2017-08-24T01:49:47.857Z,7.90
2017-08-24T01:52:15.408Z,6.97
2017-08-24T01:54:43.313Z,6.97
2017-08-24T01:57:10.849Z,7.17
2017-08-24T01:59:38.374Z,6.90
2017-08-24T02:02:05.974Z,7.17
2017-08-24T02:04:33.522Z,7.20
2017-08-24T02:07:01.358Z,7.07
2017-08-24T02:09:28.886Z,7.67
2017-08-24T02:11:56.403Z,6.60
2017-08-24T02:14:23.968Z,7.27
2017-08-24T02:16:51.491Z,7.47
2017-08-24T02:19:19.444Z,7.03
2017-08-24T02:21:46.969Z,9.00
2017-08-24T02:24:14.553Z,7.53
2017-08-24T02:26:42.118Z,7.10
2017-08-24T02:29:09.653Z,7.03
2017-08-24T02:31:37.466Z,7.23
2017-08-24T02:34:04.986Z,7.47
2017-08-24T02:36:32.514Z,6.93
2017-08-24T02:39:00.089Z,7.23
2017-08-24T02:41:27.622Z,7.77
2017-08-24T02:43:55.467Z,7.43
2017-08-24T02:46:22.998Z,7.97
2017-08-24T02:48:50.515Z,7.40
2017-08-24T02:51:18.078Z,7.57
2017-08-24T02:53:45.622Z,7.63
2017-08-24T02:56:13.575Z,7.13
2017-08-24T02:58:41.103Z,7.50
2017-08-24T03:01:08.621Z,7.57
2017-08-24T03:03:36.181Z,7.23
2017-08-24T03:06:03.710Z,8.10
2017-08-24T03:08:31.577Z,7.10
2017-08-24T03:10:59.105Z,7.10
2017-08-24T03:13:27.267Z,6.27
2017-08-24T03:15:54.830Z,7.20
2017-08-24T03:18:22.375Z,7.23
2017-08-24T03:20:50.292Z,8.20
2017-08-24T03:23:17.835Z,8.10
2017-08-24T03:25:45.376Z,6.83
2017-08-24T03:28:12.927Z,7.70
2017-08-24T03:30:40.495Z,6.80
2017-08-24T03:33:08.431Z,8.27
2017-08-24T03:35:35.968Z,6.63
2017-08-24T03:38:03.523Z,7.57
2017-08-24T03:40:31.079Z,6.90
2017-08-24T03:42:58.591Z,7.13
2017-08-24T03:45:26.380Z,6.70
2017-08-24T03:47:53.918Z,7.70
2017-08-24T03:50:21.457Z,7.07
2017-08-24T03:52:49.020Z,7.20
2017-08-24T03:55:17.374Z,7.47
2017-08-24T03:57:45.258Z,7.70
2017-08-24T04:00:12.776Z,7.83
2017-08-24T04:02:40.316Z,7.23
2017-08-24T04:05:07.878Z,7.20
2017-08-24T04:07:35.396Z,7.20
2017-08-24T04:10:03.264Z,7.53
2017-08-24T04:12:30.779Z,7.30
2017-08-24T04:14:58.320Z,8.70
2017-08-24T04:17:25.885Z,8.17
2017-08-24T04:19:53.422Z,7.70
2017-08-24T04:22:21.266Z,7.37
2017-08-24T04:24:48.788Z,8.23
2017-08-24T04:27:16.317Z,8.50
2017-08-24T04:29:43.913Z,9.23
2017-08-24T04:32:11.482Z,8.30
2017-08-24T04:34:39.490Z,7.43
2017-08-24T04:37:07.021Z,7.53
2017-08-24T04:39:34.544Z,7.53
2017-08-24T04:42:02.231Z,7.40
2017-08-24T04:44:29.759Z,8.60
2017-08-24T04:46:58.600Z,6.93
2017-08-24T04:49:26.125Z,6.90
2017-08-24T04:51:53.649Z,6.93
2017-08-24T04:54:21.241Z,7.87
2017-08-24T04:56:48.785Z,6.83
2017-08-24T04:59:20.085Z,8.00
2017-08-24T05:01:47.619Z,6.93
2017-08-24T05:04:15.157Z,6.73
2017-08-24T05:06:42.721Z,6.90
2017-08-24T05:09:11.169Z,7.47
2017-08-24T05:11:39.036Z,7.87
2017-08-24T05:14:06.607Z,6.43
2017-08-24T05:16:34.114Z,7.97
2017-08-24T05:19:01.689Z,7.50
2017-08-24T05:21:29.215Z,6.57
2017-08-24T05:23:57.053Z,7.57
2017-08-24T05:26:24.588Z,8.10
2017-08-24T05:28:52.118Z,6.90
2017-08-24T05:31:19.712Z,8.87
2017-08-24T05:33:47.240Z,7.77
2017-08-24T05:36:15.111Z,6.90
2017-08-24T05:38:42.674Z,7.17
2017-08-24T05:41:30.524Z,7.30
2017-08-24T05:44:05.579Z,6.93
2017-08-24T05:46:33.426Z,6.80
2017-08-24T05:49:00.958Z,6.43
2017-08-24T05:51:28.485Z,6.70
2017-08-24T05:53:56.029Z,6.70
2017-08-24T05:56:23.564Z,6.00
2017-08-24T05:58:51.449Z,6.90
2017-08-24T06:01:18.996Z,6.13
2017-08-24T06:03:46.539Z,5.80
2017-08-24T06:06:14.100Z,6.47
2017-08-24T06:08:41.634Z,6.27
2017-08-24T06:11:10.521Z,6.67
2017-08-24T06:13:38.073Z,5.00
2017-08-24T06:16:05.605Z,5.70
2017-08-24T06:18:33.208Z,6.37
2017-08-24T06:21:00.746Z,5.70
2017-08-24T06:23:28.585Z,5.63
2017-08-24T06:25:56.114Z,5.60
2017-08-24T06:28:23.669Z,5.50
2017-08-24T06:30:51.229Z,4.83
2017-08-24T06:33:18.786Z,5.20
2017-08-24T06:35:46.602Z,5.63
2017-08-24T06:38:14.132Z,5.30
2017-08-24T06:40:41.661Z,5.33
2017-08-24T06:43:09.253Z,4.67
2017-08-24T06:45:37.082Z,5.20
2017-08-24T06:48:04.962Z,5.20
2017-08-24T06:50:32.493Z,5.23
2017-08-24T06:53:00.029Z,4.50
2017-08-24T06:55:27.591Z,5.03
2017-08-24T06:57:55.117Z,5.07
2017-08-24T07:00:22.931Z,4.40
2017-08-24T07:02:50.466Z,4.77
2017-08-24T07:05:17.985Z,4.77
2017-08-24T07:07:45.543Z,5.50
2017-08-24T07:10:13.129Z,4.67
2017-08-24T07:12:40.962Z,4.43
2017-08-24T07:15:08.503Z,4.90
2017-08-24T07:17:36.014Z,4.00
2017-08-24T07:20:03.549Z,5.10
2017-08-24T07:22:31.140Z,5.03
2017-08-24T07:24:59.027Z,4.60
2017-08-24T07:27:26.549Z,4.60
2017-08-24T07:29:54.080Z,3.70
2017-08-24T07:32:21.645Z,4.33
2017-08-24T07:34:49.182Z,4.73
2017-08-24T07:37:17.083Z,4.40
2017-08-24T07:39:44.628Z,4.07
2017-08-24T07:42:12.164Z,4.80
2017-08-24T07:44:39.719Z,4.23
2017-08-24T07:47:07.311Z,4.00
2017-08-24T07:49:35.174Z,4.13
2017-08-24T07:52:02.717Z,5.37
2017-08-24T07:54:30.238Z,4.60
2017-08-24T07:56:57.775Z,4.37
2017-08-24T07:59:25.324Z,4.40
2017-08-24T08:01:53.153Z,3.80
2017-08-24T08:04:20.696Z,5.07
2017-08-24T08:06:48.235Z,3.97
2017-08-24T08:09:15.846Z,3.90
2017-08-24T08:11:43.380Z,3.90
2017-08-24T08:14:11.204Z,4.03
2017-08-24T08:16:38.747Z,4.20
2017-08-24T08:19:06.305Z,4.60
2017-08-24T08:21:33.861Z,4.20
2017-08-24T08:24:01.409Z,5.67
2017-08-24T08:26:29.284Z,5.60
2017-08-24T08:28:56.837Z,4.63
2017-08-24T08:31:24.384Z,4.77
2017-08-24T08:33:51.952Z,4.60
2017-08-24T08:36:19.509Z,4.60
2017-08-24T08:38:47.351Z,5.17
2017-08-24T08:41:14.901Z,4.33
2017-08-24T08:43:42.438Z,4.80
2017-08-24T08:46:10.015Z,4.50
2017-08-24T08:48:37.543Z,4.80
2017-08-24T08:51:05.398Z,5.30
2017-08-24T08:53:32.942Z,5.17
2017-08-24T08:56:00.482Z,5.27
2017-08-24T08:58:28.808Z,4.90
2017-08-24T09:00:56.347Z,5.47
2017-08-24T09:03:24.217Z,4.53
2017-08-24T09:05:51.792Z,4.63
2017-08-24T09:08:19.335Z,4.77
2017-08-24T09:10:46.912Z,4.70
2017-08-24T09:13:14.455Z,5.40
2017-08-24T09:15:42.291Z,4.30
2017-08-24T09:18:09.841Z,4.37
2017-08-24T09:20:37.395Z,4.80
2017-08-24T09:23:05.232Z,5.00
2017-08-24T09:25:32.754Z,4.50
2017-08-24T09:28:00.646Z,4.77
2017-08-24T09:30:28.182Z,4.83
2017-08-24T09:32:55.748Z,6.07
2017-08-24T09:35:23.291Z,5.13
2017-08-24T09:37:50.826Z,5.07
2017-08-24T09:40:18.392Z,4.90
2017-08-24T09:42:45.900Z,4.10
2017-08-24T09:45:13.419Z,4.70
2017-08-24T09:47:41.001Z,6.63
2017-08-24T09:50:08.548Z,4.10
2017-08-24T09:52:36.390Z,4.67
2017-08-24T09:55:03.959Z,4.70
2017-08-24T09:57:31.489Z,4.60
2017-08-24T09:59:59.042Z,5.30
2017-08-24T10:02:26.557Z,4.70
2017-08-24T10:04:54.404Z,5.70
2017-08-24T10:07:21.933Z,4.97
2017-08-24T10:09:49.497Z,5.03
2017-08-24T10:12:17.052Z,4.60
2017-08-24T10:14:44.603Z,5.37
2017-08-24T10:17:12.591Z,4.50
2017-08-24T10:19:40.167Z,5.87
2017-08-24T10:22:07.714Z,4.53
2017-08-24T10:24:35.269Z,4.37
2017-08-24T10:27:02.813Z,5.80
2017-08-24T10:29:30.808Z,4.80
2017-08-24T10:31:58.257Z,6.00
2017-08-24T10:34:25.805Z,5.30
2017-08-24T10:36:53.361Z,4.50
2017-08-24T10:39:20.889Z,4.80
2017-08-24T10:41:48.700Z,5.03
2017-08-24T10:44:16.253Z,4.77
2017-08-24T10:46:43.773Z,5.03
2017-08-24T10:49:11.321Z,3.90
2017-08-24T10:51:38.853Z,4.60
2017-08-24T10:54:06.677Z,4.67
2017-08-24T10:56:34.211Z,5.20
2017-08-24T10:59:02.558Z,5.10
2017-08-24T11:01:30.153Z,4.97
2017-08-24T11:03:57.705Z,4.43
2017-08-24T11:06:25.521Z,5.17
2017-08-24T11:08:53.029Z,5.40
2017-08-24T11:11:21.362Z,4.97
2017-08-24T11:13:48.936Z,5.50
2017-08-24T11:16:16.463Z,4.70
2017-08-24T11:18:44.272Z,4.80
2017-08-24T11:21:11.827Z,4.77
2017-08-24T11:23:39.336Z,4.90
2017-08-24T11:26:06.889Z,5.30
2017-08-24T11:28:34.450Z,5.20
2017-08-24T11:31:03.072Z,5.03
2017-08-24T11:33:30.613Z,5.90
2017-08-24T11:35:58.157Z,4.20
2017-08-24T11:38:25.732Z,4.93
2017-08-24T11:40:53.255Z,5.50
2017-08-24T11:43:21.091Z,5.00
2017-08-24T11:45:48.625Z,5.20
2017-08-24T11:48:16.150Z,4.80
2017-08-24T11:50:43.714Z,5.03
2017-08-24T11:53:11.244Z,5.50
2017-08-24T11:55:39.096Z,4.90
2017-08-24T11:58:06.653Z,5.60
2017-08-24T12:00:34.182Z,5.70
2017-08-24T12:03:01.755Z,5.53
2017-08-24T12:05:29.308Z,5.33
2017-08-24T12:07:57.345Z,5.57
2017-08-24T12:10:24.893Z,4.90
2017-08-24T12:12:52.422Z,4.60
2017-08-24T12:15:20.007Z,6.03
2017-08-24T12:17:47.550Z,5.00
2017-08-24T12:20:15.390Z,5.23
2017-08-24T12:22:42.922Z,5.57
2017-08-24T12:25:10.464Z,5.10
2017-08-24T12:27:38.006Z,5.50
2017-08-24T12:30:05.515Z,5.20
2017-08-24T12:32:34.100Z,5.27
2017-08-24T12:35:02.400Z,4.90
2017-08-24T12:37:29.924Z,5.60
2017-08-24T12:39:57.510Z,4.90
2017-08-24T12:42:25.043Z,5.33
2017-08-24T12:44:52.964Z,5.37
2017-08-24T12:47:20.504Z,5.53
2017-08-24T12:49:48.051Z,5.20
2017-08-24T12:52:15.586Z,5.13
2017-08-24T12:54:43.206Z,5.23
2017-08-24T12:57:11.049Z,5.43
2017-08-24T12:59:38.584Z,5.33
2017-08-24T13:02:06.139Z,4.67
2017-08-24T13:04:33.720Z,5.40
2017-08-24T13:07:01.244Z,5.30
2017-08-24T13:09:30.684Z,5.30
2017-08-24T13:11:58.236Z,5.53
2017-08-24T13:14:25.848Z,5.47
2017-08-24T13:16:53.404Z,5.80
2017-08-24T13:19:20.978Z,5.37
2017-08-24T13:21:48.838Z,4.57
2017-08-24T13:24:16.496Z,5.37
2017-08-24T13:26:44.711Z,5.03
2017-08-24T13:29:12.575Z,5.27
2017-08-24T13:31:40.139Z,5.27
2017-08-24T13:34:08.267Z,5.10
2017-08-24T13:36:41.904Z,5.67
2017-08-24T13:39:09.746Z,4.90
2017-08-24T13:41:37.273Z,4.80
2017-08-24T13:44:04.824Z,4.60
2017-08-24T13:46:32.378Z,5.87
2017-08-24T13:48:59.929Z,5.43
2017-08-24T13:51:27.756Z,5.73
2017-08-24T13:53:55.286Z,5.30
2017-08-24T13:56:22.847Z,5.13
2017-08-24T13:58:50.445Z,5.43
2017-08-24T14:01:17.982Z,5.83
2017-08-24T14:03:45.873Z,5.57
2017-08-24T14:06:13.412Z,6.27
2017-08-24T14:08:40.954Z,5.50
2017-08-24T14:11:08.563Z,5.80
2017-08-24T14:13:36.102Z,6.20
2017-08-24T14:16:04.038Z,6.30
2017-08-24T14:18:31.570Z,6.80
2017-08-24T14:20:59.085Z,6.63
2017-08-24T14:23:26.641Z,6.90
2017-08-24T14:25:54.208Z,6.67
2017-08-24T14:28:22.118Z,6.17
2017-08-24T14:30:49.651Z,6.80
2017-08-24T14:33:17.231Z,6.57
2017-08-24T14:35:44.845Z,7.60
2017-08-24T14:38:12.413Z,6.30
2017-08-24T14:40:40.316Z,7.10
2017-08-24T14:43:07.836Z,6.67
2017-08-24T14:45:35.378Z,7.30
2017-08-24T14:48:02.953Z,7.87
2017-08-24T14:50:31.473Z,7.67
2017-08-24T14:52:59.356Z,6.90
2017-08-24T14:55:26.874Z,6.80
2017-08-24T14:57:55.204Z,6.73
2017-08-24T15:00:22.757Z,7.23
2017-08-24T15:02:50.307Z,6.60
2017-08-24T15:05:18.130Z,8.10
2017-08-24T15:07:45.667Z,7.60
2017-08-24T15:10:13.196Z,7.60
2017-08-24T15:12:40.841Z,7.33
2017-08-24T15:15:08.402Z,7.40
2017-08-24T15:17:36.444Z,8.30
2017-08-24T15:20:03.996Z,7.90
2017-08-24T15:22:31.541Z,7.50
2017-08-24T15:24:59.254Z,8.53
2017-08-24T15:27:26.824Z,9.03
2017-08-24T15:29:54.799Z,9.47
2017-08-24T15:32:22.320Z,9.40
2017-08-24T15:34:49.886Z,8.53
2017-08-24T15:37:19.309Z,8.77
2017-08-24T15:39:46.859Z,8.67
2017-08-24T15:42:14.795Z,8.20
2017-08-24T15:44:43.108Z,9.40
2017-08-24T15:47:10.655Z,9.13
2017-08-24T15:49:38.237Z,8.80
2017-08-24T15:52:05.792Z,8.70
2017-08-24T15:54:33.654Z,9.73
2017-08-24T15:57:01.249Z,9.43
2017-08-24T15:59:28.794Z,8.70
2017-08-24T16:01:56.372Z,8.53
2017-08-24T16:04:23.912Z,8.07
2017-08-24T16:06:51.777Z,7.67
2017-08-24T16:09:20.161Z,8.87
2017-08-24T16:11:47.691Z,8.23
2017-08-24T16:14:15.260Z,8.10
2017-08-24T16:16:42.793Z,8.40
2017-08-24T16:19:10.678Z,8.50
2017-08-24T16:21:38.255Z,8.53
2017-08-24T16:24:05.795Z,9.47
2017-08-24T16:26:33.407Z,9.10
2017-08-24T16:29:00.991Z,8.73
2017-08-24T16:31:28.926Z,9.40
2017-08-24T16:33:56.496Z,12.20
2017-08-24T16:36:24.056Z,12.40
2017-08-24T16:38:51.601Z,12.30
2017-08-24T16:41:20.157Z,13.50
2017-08-24T16:43:48.038Z,13.60
2017-08-24T16:46:16.556Z,13.30
2017-08-24T16:48:44.128Z,15.50
2017-08-24T16:51:11.705Z,15.40
2017-08-24T16:53:39.228Z,15.80
2017-08-24T16:56:07.868Z,15.63
2017-08-24T16:58:35.399Z,16.00
2017-08-24T17:01:02.948Z,15.83
2017-08-24T17:03:30.515Z,15.70
2017-08-24T17:05:58.072Z,16.10
2017-08-24T17:08:25.987Z,17.30
2017-08-24T17:10:53.523Z,17.60
2017-08-24T17:13:21.047Z,18.60
2017-08-24T17:15:48.644Z,18.20
2017-08-24T17:18:16.254Z,16.90
2017-08-24T17:20:44.091Z,15.70
2017-08-24T17:23:11.612Z,15.27
2017-08-24T17:25:39.172Z,18.37
2017-08-24T17:28:06.738Z,18.20
2017-08-24T17:30:35.276Z,18.07
2017-08-24T17:33:03.129Z,16.60
2017-08-24T17:35:30.668Z,19.03
2017-08-24T17:37:58.216Z,20.43
2017-08-24T17:40:25.790Z,18.83
2017-08-24T17:42:53.367Z,18.87
2017-08-24T17:45:21.287Z,20.87
2017-08-24T17:47:48.856Z,19.60
2017-08-24T17:50:16.391Z,17.97
2017-08-24T17:52:43.966Z,17.97
2017-08-24T17:55:11.514Z,18.53
2017-08-24T17:57:39.433Z,17.57
2017-08-24T18:00:07.014Z,21.57
2017-08-24T18:02:35.343Z,19.30
2017-08-24T18:05:02.899Z,19.37
2017-08-24T18:07:30.464Z,20.77
2017-08-24T18:09:58.291Z,19.47
2017-08-24T18:12:25.830Z,19.93
2017-08-24T18:14:53.380Z,20.83
2017-08-24T18:17:20.953Z,19.90
2017-08-24T18:19:48.500Z,18.20
2017-08-24T18:22:17.487Z,20.30
2017-08-24T18:24:45.015Z,21.63
2017-08-24T18:27:12.554Z,22.80
2017-08-24T18:29:40.155Z,21.30
2017-08-24T18:32:08.475Z,20.57
2017-08-24T18:34:36.440Z,18.33
2017-08-24T18:37:03.956Z,18.43
2017-08-24T18:39:31.523Z,18.73
2017-08-24T18:41:59.164Z,20.37
2017-08-24T18:44:26.725Z,20.87
2017-08-24T18:46:54.638Z,19.20
2017-08-24T18:49:22.216Z,21.50
2017-08-24T18:51:50.990Z,21.20
2017-08-24T18:54:18.667Z,21.67
2017-08-24T18:56:46.221Z,22.00
2017-08-24T18:59:14.991Z,21.53
2017-08-24T19:01:42.582Z,21.20
2017-08-24T19:04:10.162Z,22.37
2017-08-24T19:06:37.731Z,22.20
2017-08-24T19:09:05.323Z,26.33
2017-08-24T19:11:33.203Z,23.90
2017-08-24T19:16:51.941Z,23.07
2017-08-24T19:19:19.575Z,23.40
2017-08-24T19:21:47.135Z,22.73
2017-08-24T19:24:37.613Z,21.83
2017-08-24T19:27:05.181Z,23.67
2017-08-24T19:29:33.066Z,39.93
2017-08-24T19:32:02.607Z,25.27
2017-08-24T19:34:30.242Z,24.87
2017-08-24T19:36:57.804Z,23.70
2017-08-24T19:39:25.378Z,23.60
2017-08-24T19:41:53.199Z,26.20
2017-08-24T19:44:37.007Z,24.40
2017-08-24T19:47:05.151Z,24.30
2017-08-24T19:49:33.577Z,23.80
2017-08-24T19:52:01.183Z,24.97
2017-08-24T19:54:29.577Z,25.20
2017-08-24T19:56:57.411Z,23.63
2017-08-24T19:59:25.317Z,22.60
2017-08-24T20:01:57.193Z,25.43
2017-08-24T20:04:25.106Z,22.90
2017-08-24T20:06:53.384Z,23.67
2017-08-24T20:09:21.740Z,21.90
2017-08-24T20:11:49.314Z,22.30
2017-08-24T20:14:16.847Z,23.57
2017-08-24T20:16:45.685Z,21.40
2017-08-24T20:19:13.210Z,24.07
2017-08-24T20:21:40.770Z,22.47
2017-08-24T20:24:12.024Z,24.27
2017-08-24T20:26:44.827Z,22.37
2017-08-24T20:29:12.769Z,22.93
2017-08-24T20:31:40.318Z,24.67
2017-08-24T20:34:07.839Z,23.47
2017-08-24T20:36:35.782Z,22.43
2017-08-24T20:41:58.330Z,22.07
2017-08-24T20:44:26.717Z,21.23
2017-08-24T20:46:54.263Z,20.80
2017-08-24T20:49:21.857Z,23.10
2017-08-24T20:51:49.398Z,22.13
2017-08-24T20:54:17.216Z,22.97
2017-08-24T20:56:44.937Z,23.13
2017-08-24T20:59:12.595Z,22.23
2017-08-24T21:01:40.369Z,21.63
2017-08-24T21:04:08.031Z,22.27
2017-08-24T21:06:48.272Z,23.03
2017-08-24T21:09:15.841Z,23.20
2017-08-24T21:11:43.424Z,24.00
2017-08-24T21:14:11.123Z,22.77
2017-08-24T21:16:38.765Z,21.90
2017-08-24T21:19:06.697Z,22.57
2017-08-24T21:21:39.436Z,24.07
2017-08-24T21:24:07.666Z,23.03
2017-08-24T21:26:39.019Z,22.30
2017-08-24T21:29:06.896Z,23.40
2017-08-24T21:31:44.819Z,24.70
2017-08-24T21:34:14.015Z,26.17
2017-08-24T21:36:41.683Z,27.27
2017-08-24T21:39:09.911Z,26.63
2017-08-24T21:41:37.786Z,27.80
2017-08-24T21:44:06.368Z,26.13
2017-08-24T21:46:34.449Z,27.07
2017-08-24T21:49:03.960Z,25.87
2017-08-24T21:54:03.474Z,24.67
2017-08-24T21:56:31.810Z,23.60
2017-08-24T21:59:00.495Z,23.80
2017-08-24T22:01:29.043Z,23.70
2017-08-24T22:04:00.291Z,23.30
2017-08-24T22:06:28.170Z,24.30
2017-08-24T22:08:55.725Z,24.27
2017-08-24T22:11:24.245Z,23.03
2017-08-24T22:13:51.804Z,20.50
2017-08-24T22:16:19.457Z,20.30
2017-08-24T22:18:47.060Z,20.77
2017-08-24T22:21:16.144Z,20.77
2017-08-24T22:23:46.901Z,20.13
2017-08-24T22:26:14.565Z,22.87
2017-08-24T22:31:25.250Z,21.80
2017-08-24T22:33:52.978Z,21.13
2017-08-24T22:36:21.072Z,22.23
2017-08-24T22:41:20.951Z,21.53
2017-08-24T22:43:48.491Z,22.17
2017-08-24T22:46:16.064Z,21.00
2017-08-24T22:48:43.651Z,22.70
2017-08-24T22:51:11.397Z,22.47
2017-08-24T22:53:45.096Z,21.83
2017-08-24T22:56:18.473Z,23.73
2017-08-24T22:58:52.059Z,23.20
2017-08-24T23:01:40.491Z,21.47
2017-08-24T23:04:08.510Z,21.97
2017-08-24T23:06:40.626Z,23.40
2017-08-24T23:09:08.832Z,25.17
2017-08-24T23:11:44.187Z,27.20
2017-08-24T23:14:12.086Z,26.10
2017-08-24T23:16:39.655Z,26.57
2017-08-24T23:19:10.279Z,27.67
2017-08-24T23:21:38.758Z,28.00
2017-08-24T23:24:06.430Z,26.30
2017-08-24T23:26:34.334Z,26.73
2017-08-24T23:29:01.895Z,26.30
2017-08-24T23:31:29.463Z,25.90
2017-08-24T23:33:57.463Z,27.10
2017-08-24T23:36:25.213Z,26.27
2017-08-24T23:38:53.180Z,25.27
2017-08-24T23:41:20.757Z,25.30
2017-08-24T23:43:48.397Z,26.40
2017-08-24T23:46:34.047Z,28.23
2017-08-24T23:49:01.914Z,26.40
2017-08-24T23:51:29.792Z,30.20
2017-08-24T23:53:57.357Z,28.50
2017-08-24T23:56:24.899Z,27.20
2017-08-24T23:58:52.474Z,28.40
